createdAt,value
2018-04-23T00:00:43.827Z,11.90
2018-04-23T00:03:10.568Z,10.70
2018-04-23T00:05:37.410Z,12.43
2018-04-23T00:08:04.248Z,11.37
2018-04-23T00:10:30.984Z,11.17
2018-04-23T00:12:57.723Z,10.77
2018-04-23T00:15:24.385Z,12.30
2018-04-23T00:17:51.213Z,12.20
2018-04-23T00:20:17.927Z,12.33
2018-04-23T00:22:44.690Z,13.00
2018-04-23T00:25:11.537Z,22.80
2018-04-23T00:27:38.275Z,11.17
2018-04-23T00:30:05.117Z,12.73
2018-04-23T00:32:31.959Z,11.43
2018-04-23T00:34:58.801Z,11.07
2018-04-23T00:37:25.441Z,12.67
2018-04-23T00:39:52.281Z,11.13
2018-04-23T00:42:19.120Z,10.67
2018-04-23T00:44:46.067Z,12.97
2018-04-23T00:47:14.450Z,13.27
2018-04-23T00:49:41.113Z,12.03
2018-04-23T00:52:08.029Z,13.80
2018-04-23T00:54:34.765Z,12.57
2018-04-23T00:57:01.443Z,13.67
2018-04-23T00:59:28.249Z,11.63
2018-04-23T01:01:55.193Z,13.50
2018-04-23T01:04:21.935Z,11.73
2018-04-23T01:06:48.776Z,14.67
2018-04-23T01:09:15.618Z,13.57
2018-04-23T01:11:42.563Z,12.03
2018-04-23T01:14:09.405Z,15.37
2018-04-23T01:16:36.145Z,11.93
2018-04-23T01:19:03.094Z,14.53
2018-04-23T01:21:29.833Z,12.80
2018-04-23T01:23:56.499Z,16.53
2018-04-23T01:26:23.411Z,14.97
2018-04-23T01:28:50.253Z,14.63
2018-04-23T01:31:17.092Z,13.83
2018-04-23T01:33:43.837Z,15.53
2018-04-23T01:36:10.679Z,13.27
2018-04-23T01:38:37.537Z,11.77
2018-04-23T01:41:04.359Z,17.07
2018-04-23T01:43:31.038Z,13.33
2018-04-23T01:45:57.843Z,14.57
2018-04-23T01:48:24.685Z,14.90
2018-04-23T01:50:51.529Z,16.37
2018-04-23T01:53:18.264Z,15.43
2018-04-23T01:55:44.946Z,16.83
2018-04-23T01:58:11.602Z,16.50
2018-04-23T02:00:39.102Z,17.40
2018-04-23T02:03:05.839Z,18.97
2018-04-23T02:05:32.683Z,14.23
2018-04-23T02:07:59.527Z,16.07
2018-04-23T02:10:26.263Z,16.60
2018-04-23T02:12:53.002Z,13.53
2018-04-23T02:15:19.748Z,16.83
2018-04-23T02:17:46.437Z,16.27
2018-04-23T02:20:13.222Z,15.03
2018-04-23T02:22:40.272Z,20.27
2018-04-23T02:25:07.115Z,22.40
2018-04-23T02:27:33.757Z,20.53
2018-04-23T02:30:00.489Z,19.30
2018-04-23T02:32:27.146Z,19.23
2018-04-23T02:34:53.866Z,18.30
2018-04-23T02:37:20.713Z,16.07
2018-04-23T02:39:47.557Z,17.13
2018-04-23T02:42:14.495Z,18.80
2018-04-23T02:44:41.341Z,21.33
2018-04-23T02:47:08.078Z,15.20
2018-04-23T02:49:34.924Z,21.00
2018-04-23T02:52:01.865Z,21.47
2018-04-23T02:54:28.583Z,21.00
2018-04-23T02:56:56.169Z,20.90
2018-04-23T02:59:22.894Z,17.67
2018-04-23T03:01:49.651Z,15.80
2018-04-23T03:04:16.490Z,20.97
2018-04-23T03:06:43.200Z,16.67
2018-04-23T03:09:10.080Z,17.80
2018-04-23T03:11:36.915Z,16.53
2018-04-23T03:14:03.859Z,15.17
2018-04-23T03:16:30.697Z,20.73
2018-04-23T03:18:57.366Z,18.80
2018-04-23T03:21:24.841Z,17.23
2018-04-23T03:23:51.741Z,16.93
2018-04-23T03:26:18.578Z,16.40
2018-04-23T03:28:45.428Z,14.83
2018-04-23T03:31:12.270Z,14.17
2018-04-23T03:33:39.112Z,16.13
2018-04-23T03:36:05.954Z,11.60
2018-04-23T03:38:33.099Z,13.17
2018-04-23T03:40:59.839Z,12.00
2018-04-23T03:43:26.498Z,16.00
2018-04-23T03:45:53.425Z,15.40
2018-04-23T03:48:20.165Z,12.77
2018-04-23T03:50:46.982Z,13.67
2018-04-23T03:53:14.463Z,16.00
2018-04-23T03:55:41.166Z,15.73
2018-04-23T03:58:08.656Z,14.63
2018-04-23T04:00:35.400Z,19.30
2018-04-23T04:03:02.058Z,18.17
2018-04-23T04:05:28.880Z,18.33
2018-04-23T04:07:55.746Z,15.90
2018-04-23T04:10:23.282Z,19.07
2018-04-23T04:13:02.511Z,17.10
2018-04-23T04:15:41.541Z,19.90
2018-04-23T04:21:10.549Z,21.77
2018-04-23T04:23:37.490Z,16.07
2018-04-23T04:26:04.338Z,22.37
2018-04-23T04:28:31.115Z,21.33
2018-04-23T04:30:58.130Z,21.13
2018-04-23T04:33:24.862Z,25.10
2018-04-23T04:35:51.503Z,21.03
2018-04-23T04:38:18.814Z,23.53
2018-04-23T04:40:45.601Z,25.17
2018-04-23T04:43:12.332Z,23.13
2018-04-23T04:45:39.179Z,27.90
2018-04-23T04:48:06.030Z,26.40
2018-04-23T04:50:32.868Z,27.83
2018-04-23T04:52:59.809Z,30.00
2018-04-23T04:55:26.656Z,29.20
2018-04-23T04:57:53.498Z,36.70
2018-04-23T05:00:20.336Z,29.30
2018-04-23T05:02:47.080Z,31.90
2018-04-23T05:05:13.918Z,34.53
2018-04-23T05:07:40.590Z,37.13
2018-04-23T05:10:07.359Z,33.80
2018-04-23T05:12:34.859Z,37.30
2018-04-23T05:15:01.708Z,36.60
2018-04-23T05:17:28.432Z,35.47
2018-04-23T05:19:55.176Z,35.77
2018-04-23T05:22:21.920Z,33.37
2018-04-23T05:24:48.866Z,36.57
2018-04-23T05:27:15.551Z,34.73
2018-04-23T05:29:43.880Z,33.03
2018-04-23T05:32:10.725Z,37.07
2018-04-23T05:34:37.467Z,35.50
2018-04-23T05:37:04.200Z,33.73
2018-04-23T05:39:30.944Z,35.63
2018-04-23T05:41:57.781Z,36.00
2018-04-23T05:44:24.528Z,35.77
2018-04-23T05:46:51.262Z,37.17
2018-04-23T05:49:18.105Z,33.67
2018-04-23T05:51:45.049Z,32.23
2018-04-23T05:54:11.789Z,32.63
2018-04-23T05:56:38.532Z,32.93
2018-04-23T05:59:05.370Z,36.10
2018-04-23T06:01:32.022Z,32.73
2018-04-23T06:03:59.161Z,33.90
2018-04-23T06:06:26.004Z,31.67
2018-04-23T06:08:52.846Z,28.37
2018-04-23T06:11:19.581Z,30.70
2018-04-23T06:13:46.427Z,31.00
2018-04-23T06:16:13.270Z,32.23
2018-04-23T06:18:40.107Z,34.87
2018-04-23T06:21:06.799Z,30.10
2018-04-23T06:23:33.693Z,31.63
2018-04-23T06:26:00.382Z,26.27
2018-04-23T06:28:27.174Z,29.53
2018-04-23T06:30:54.015Z,22.73
2018-04-23T06:33:20.712Z,31.63
2018-04-23T06:35:48.211Z,27.40
2018-04-23T06:38:14.955Z,28.50
2018-04-23T06:40:41.795Z,25.33
2018-04-23T06:43:09.047Z,33.87
2018-04-23T06:45:35.889Z,34.90
2018-04-23T06:48:02.731Z,32.03
2018-04-23T06:50:29.429Z,24.57
2018-04-23T06:52:56.315Z,21.60
2018-04-23T06:55:23.050Z,21.80
2018-04-23T06:57:49.998Z,24.83
2018-04-23T07:00:16.857Z,24.80
2018-04-23T07:02:43.578Z,20.10
2018-04-23T07:05:10.482Z,19.40
2018-04-23T07:07:37.262Z,24.67
2018-04-23T07:10:04.216Z,24.80
2018-04-23T07:12:31.460Z,23.90
2018-04-23T07:14:58.150Z,25.27
2018-04-23T07:17:25.045Z,22.90
2018-04-23T07:19:51.992Z,24.43
2018-04-23T07:22:18.686Z,23.60
2018-04-23T07:24:45.572Z,23.47
2018-04-23T07:27:12.246Z,25.93
2018-04-23T07:29:39.065Z,28.77
2018-04-23T07:32:05.736Z,26.70
2018-04-23T07:34:33.961Z,24.13
2018-04-23T07:37:00.625Z,22.37
2018-04-23T07:39:27.441Z,22.33
2018-04-23T07:41:54.516Z,18.50
2018-04-23T07:44:21.335Z,18.53
2018-04-23T07:46:48.075Z,16.57
2018-04-23T07:49:15.198Z,14.97
2018-04-23T07:51:42.606Z,13.37
2018-04-23T07:54:09.460Z,11.57
2018-04-23T07:56:36.165Z,16.97
2018-04-23T07:59:03.006Z,15.90
2018-04-23T08:01:30.149Z,13.23
2018-04-23T08:03:56.994Z,16.93
2018-04-23T08:06:23.672Z,15.73
2018-04-23T08:08:50.476Z,18.50
2018-04-23T08:11:17.418Z,13.93
2018-04-23T08:13:44.082Z,12.27
2018-04-23T08:16:10.997Z,14.33
2018-04-23T08:18:37.839Z,15.07
2018-04-23T08:21:04.484Z,13.50
2018-04-23T08:23:31.216Z,16.40
2018-04-23T08:25:58.166Z,16.60
2018-04-23T08:28:24.986Z,14.33
2018-04-23T08:30:51.747Z,12.10
2018-04-23T08:33:18.487Z,13.17
2018-04-23T08:35:45.169Z,8.70
2018-04-23T08:38:11.968Z,9.40
2018-04-23T08:40:38.809Z,10.70
2018-04-23T08:43:05.652Z,13.00
2018-04-23T08:45:32.498Z,6.80
2018-04-23T08:47:59.337Z,8.90
2018-04-23T08:50:26.093Z,7.17
2018-04-23T08:52:53.023Z,8.10
2018-04-23T08:55:19.865Z,7.77
2018-04-23T08:57:46.686Z,7.03
2018-04-23T09:00:13.552Z,7.63
2018-04-23T09:02:40.388Z,5.57
2018-04-23T09:05:07.311Z,5.87
2018-04-23T09:07:34.076Z,5.60
2018-04-23T09:10:01.545Z,4.90
2018-04-23T09:12:28.376Z,4.97
2018-04-23T09:14:55.021Z,7.27
2018-04-23T09:17:21.698Z,7.30
2018-04-23T09:19:49.917Z,8.40
2018-04-23T09:22:16.653Z,7.73
2018-04-23T09:24:43.365Z,10.10
2018-04-23T09:27:10.246Z,7.37
2018-04-23T09:29:37.091Z,6.77
2018-04-23T09:32:03.829Z,6.60
2018-04-23T09:34:30.673Z,12.00
2018-04-23T09:36:57.329Z,6.50
2018-04-23T09:39:24.149Z,8.40
2018-04-23T09:41:50.798Z,7.30
2018-04-23T09:44:17.486Z,6.43
2018-04-23T09:46:44.987Z,5.60
2018-04-23T09:49:12.798Z,8.17
2018-04-23T09:51:39.590Z,7.27
2018-04-23T09:54:06.279Z,8.57
2018-04-23T09:56:33.995Z,5.43
2018-04-23T09:59:00.837Z,9.23
2018-04-23T10:01:29.625Z,6.20
2018-04-23T10:04:11.520Z,7.20
2018-04-23T10:06:38.261Z,6.90
2018-04-23T10:09:05.502Z,7.87
2018-04-23T10:11:32.459Z,7.87
2018-04-23T10:13:59.199Z,9.73
2018-04-23T10:16:26.039Z,9.93
2018-04-23T10:18:52.782Z,6.93
2018-04-23T10:21:19.523Z,8.17
2018-04-23T10:23:46.362Z,6.83
2018-04-23T10:26:13.054Z,7.80
2018-04-23T10:28:39.845Z,7.33
2018-04-23T10:31:06.988Z,7.30
2018-04-23T10:33:33.634Z,8.87
2018-04-23T10:36:00.369Z,7.47
2018-04-23T10:38:27.208Z,8.50
2018-04-23T10:40:54.052Z,9.50
2018-04-23T10:43:20.895Z,6.03
2018-04-23T10:45:47.715Z,6.93
2018-04-23T10:48:15.297Z,7.47
2018-04-23T10:50:42.350Z,5.30
2018-04-23T10:53:09.289Z,5.60
2018-04-23T10:55:36.134Z,5.20
2018-04-23T10:58:02.854Z,6.00
2018-04-23T11:00:30.533Z,6.00
2018-04-23T11:02:57.480Z,4.63
2018-04-23T11:05:24.319Z,7.27
2018-04-23T11:07:50.997Z,6.27
2018-04-23T11:10:18.618Z,5.60
2018-04-23T11:12:45.335Z,4.57
2018-04-23T11:15:12.816Z,5.60
2018-04-23T11:17:39.533Z,5.20
2018-04-23T11:20:06.292Z,4.47
2018-04-23T11:22:33.189Z,4.93
2018-04-23T11:25:01.937Z,6.47
2018-04-23T11:27:29.482Z,7.57
2018-04-23T11:29:56.160Z,5.33
2018-04-23T11:32:22.965Z,9.80
2018-04-23T11:34:49.621Z,5.40
2018-04-23T11:37:16.546Z,7.17
2018-04-23T11:39:43.494Z,4.97
2018-04-23T11:42:10.230Z,4.60
2018-04-23T11:44:36.972Z,5.37
2018-04-23T11:47:03.814Z,6.17
2018-04-23T11:49:30.553Z,6.53
2018-04-23T11:51:57.241Z,6.33
2018-04-23T11:54:24.031Z,4.30
2018-04-23T11:56:50.875Z,8.27
2018-04-23T11:59:17.763Z,5.50
2018-04-23T12:01:44.556Z,5.17
2018-04-23T12:04:11.506Z,7.33
2018-04-23T12:06:38.347Z,4.70
2018-04-23T12:09:06.109Z,4.97
2018-04-23T12:11:33.056Z,4.30
2018-04-23T12:13:59.995Z,5.33
2018-04-23T12:16:26.737Z,5.03
2018-04-23T12:18:53.584Z,5.70
2018-04-23T12:21:20.528Z,5.80
2018-04-23T12:23:47.227Z,4.80
2018-04-23T12:26:14.725Z,6.40
2018-04-23T12:28:41.420Z,9.23
2018-04-23T12:31:08.205Z,4.60
2018-04-23T12:33:34.874Z,5.20
2018-04-23T12:36:01.685Z,5.00
2018-04-23T12:38:28.929Z,9.43
2018-04-23T12:40:55.673Z,4.90
2018-04-23T12:43:22.334Z,5.70
2018-04-23T12:45:49.199Z,6.13
2018-04-23T12:48:15.993Z,4.40
2018-04-23T12:50:42.841Z,5.90
2018-04-23T12:53:09.679Z,6.10
2018-04-23T12:55:36.424Z,6.17
2018-04-23T12:58:03.368Z,4.73
2018-04-23T13:00:30.417Z,6.20
2018-04-23T13:02:57.073Z,6.37
2018-04-23T13:05:23.895Z,4.33
2018-04-23T13:07:50.840Z,6.10
2018-04-23T13:10:17.501Z,4.07
2018-04-23T13:12:44.323Z,6.73
2018-04-23T13:15:11.162Z,4.53
2018-04-23T13:17:37.902Z,4.70
2018-04-23T13:20:04.743Z,5.73
2018-04-23T13:22:31.690Z,5.37
2018-04-23T13:24:58.635Z,6.03
2018-04-23T13:27:25.478Z,5.10
2018-04-23T13:29:52.138Z,7.30
2018-04-23T13:32:19.366Z,6.10
2018-04-23T13:34:46.081Z,6.27
2018-04-23T13:37:12.846Z,6.73
2018-04-23T13:39:39.688Z,5.07
2018-04-23T13:42:06.381Z,4.10
2018-04-23T13:44:33.163Z,5.13
2018-04-23T13:47:00.006Z,4.90
2018-04-23T13:49:26.724Z,6.67
2018-04-23T13:51:53.703Z,4.70
2018-04-23T13:54:20.540Z,5.67
2018-04-23T13:56:47.276Z,5.77
2018-04-23T13:59:14.080Z,4.67
2018-04-23T14:01:41.487Z,5.20
2018-04-23T14:04:08.156Z,6.50
2018-04-23T14:06:35.051Z,5.83
2018-04-23T14:09:02.001Z,5.97
2018-04-23T14:11:28.839Z,4.47
2018-04-23T14:13:55.684Z,4.83
2018-04-23T14:16:23.141Z,4.27
2018-04-23T14:18:49.881Z,4.47
2018-04-23T14:21:16.578Z,6.70
2018-04-23T14:23:43.355Z,4.83
2018-04-23T14:26:10.202Z,7.73
2018-04-23T14:28:37.045Z,4.97
2018-04-23T14:31:03.889Z,4.97
2018-04-23T14:33:30.628Z,5.77
2018-04-23T14:35:57.469Z,4.90
2018-04-23T14:38:24.210Z,6.07
2018-04-23T14:40:50.892Z,6.10
2018-04-23T14:43:18.403Z,6.03
2018-04-23T14:45:45.150Z,5.90
2018-04-23T14:48:11.987Z,7.10
2018-04-23T14:50:38.636Z,4.77
2018-04-23T14:53:05.505Z,7.03
2018-04-23T14:55:32.289Z,5.20
2018-04-23T14:57:58.957Z,6.77
2018-04-23T15:00:25.791Z,5.77
2018-04-23T15:02:52.523Z,6.57
2018-04-23T15:05:19.270Z,4.73
2018-04-23T15:07:45.929Z,6.13
2018-04-23T15:10:12.746Z,5.33
2018-04-23T15:12:39.485Z,5.70
2018-04-23T15:15:06.225Z,5.63
2018-04-23T15:17:33.071Z,6.57
2018-04-23T15:19:59.814Z,7.07
2018-04-23T15:22:26.551Z,7.27
2018-04-23T15:24:53.491Z,6.30
2018-04-23T15:27:20.338Z,5.10
2018-04-23T15:29:47.176Z,9.23
2018-04-23T15:32:13.916Z,5.97
2018-04-23T15:34:40.761Z,7.57
2018-04-23T15:37:07.437Z,7.40
2018-04-23T15:39:34.910Z,8.57
2018-04-23T15:42:01.800Z,5.43
2018-04-23T15:44:28.489Z,7.20
2018-04-23T15:46:55.276Z,6.33
2018-04-23T15:49:22.016Z,5.90
2018-04-23T15:51:48.862Z,6.53
2018-04-23T15:54:15.506Z,8.00
2018-04-23T15:56:42.176Z,5.23
2018-04-23T15:59:08.977Z,5.63
2018-04-23T16:01:35.717Z,6.10
2018-04-23T16:04:03.182Z,4.90
2018-04-23T16:06:30.018Z,8.07
2018-04-23T16:08:56.857Z,6.63
2018-04-23T16:11:23.808Z,6.73
2018-04-23T16:13:50.543Z,5.03
2018-04-23T16:16:17.388Z,7.63
2018-04-23T16:18:44.232Z,6.00
2018-04-23T16:21:10.916Z,5.10
2018-04-23T16:23:37.569Z,7.43
2018-04-23T16:26:05.009Z,7.60
2018-04-23T16:28:33.341Z,6.57
2018-04-23T16:31:00.081Z,5.90
2018-04-23T16:33:26.868Z,5.63
2018-04-23T16:35:53.601Z,8.07
2018-04-23T16:38:20.506Z,6.67
2018-04-23T16:40:47.242Z,6.57
2018-04-23T16:43:13.921Z,6.93
2018-04-23T16:45:40.582Z,4.67
2018-04-23T16:48:08.182Z,6.53
2018-04-23T16:50:34.922Z,7.00
2018-04-23T16:53:02.175Z,5.77
2018-04-23T16:55:29.017Z,7.40
2018-04-23T16:57:55.753Z,5.27
2018-04-23T17:00:22.697Z,7.03
2018-04-23T17:02:49.480Z,4.93
2018-04-23T17:05:16.155Z,5.60
2018-04-23T17:07:43.033Z,5.57
2018-04-23T17:10:10.169Z,4.90
2018-04-23T17:12:37.012Z,6.53
2018-04-23T17:15:03.727Z,5.83
2018-04-23T17:17:30.454Z,6.00
2018-04-23T17:19:57.246Z,9.63
2018-04-23T17:22:23.898Z,4.87
2018-04-23T17:24:50.919Z,7.77
2018-04-23T17:27:17.860Z,6.77
2018-04-23T17:29:44.605Z,5.50
2018-04-23T17:32:11.345Z,5.60
2018-04-23T17:34:38.158Z,5.70
2018-04-23T17:37:04.923Z,5.60
2018-04-23T17:39:31.872Z,5.90
2018-04-23T17:41:58.611Z,2.90
2018-04-23T17:44:25.454Z,6.73
2018-04-23T17:46:52.188Z,6.13
2018-04-23T17:49:18.846Z,6.43
2018-04-23T17:51:45.671Z,5.47
2018-04-23T17:54:21.382Z,6.30
2018-04-23T17:56:48.005Z,9.37
2018-04-23T17:59:14.629Z,3.17
2018-04-23T18:01:41.540Z,3.10
2018-04-23T18:04:08.292Z,5.23
2018-04-23T18:06:35.127Z,3.97
2018-04-23T18:09:02.480Z,5.13
2018-04-23T18:11:29.965Z,3.40
2018-04-23T18:13:57.498Z,5.87
2018-04-23T18:16:24.235Z,11.37
2018-04-23T18:18:50.973Z,10.03
2018-04-23T18:21:17.712Z,8.37
2018-04-23T18:23:44.456Z,12.83
2018-04-23T18:26:11.494Z,4.43
2018-04-23T18:28:38.085Z,3.90
2018-04-23T18:31:04.889Z,5.63
2018-04-23T18:33:31.622Z,3.53
2018-04-23T18:35:58.197Z,4.67
2018-04-23T18:38:24.899Z,7.53
2018-04-23T18:40:51.631Z,6.20
2018-04-23T18:43:18.372Z,5.00
2018-04-23T18:45:45.166Z,3.90
2018-04-23T18:48:11.799Z,3.70
2018-04-23T18:50:38.502Z,6.37
2018-04-23T18:53:05.229Z,4.53
2018-04-23T18:55:32.100Z,5.03
2018-04-23T18:57:59.633Z,6.27
2018-04-23T19:00:26.984Z,6.03
2018-04-23T19:02:53.826Z,5.87
2018-04-23T19:05:20.566Z,5.60
2018-04-23T19:07:47.416Z,6.70
2018-04-23T19:10:16.109Z,5.83
2018-04-23T19:12:43.145Z,5.30
2018-04-23T19:15:09.887Z,3.97
2018-04-23T19:17:36.625Z,8.60
2018-04-23T19:20:03.468Z,6.40
2018-04-23T19:22:30.207Z,7.30
2018-04-23T19:24:56.947Z,6.13
2018-04-23T19:27:23.561Z,5.70
2018-04-23T19:29:50.153Z,3.70
2018-04-23T19:32:16.802Z,6.77
2018-04-23T19:34:43.803Z,5.87
2018-04-23T19:37:10.486Z,4.87
2018-04-23T19:39:37.241Z,7.63
2018-04-23T19:42:04.024Z,4.03
2018-04-23T19:44:30.760Z,6.50
2018-04-23T19:46:57.605Z,6.13
2018-04-23T19:49:24.206Z,5.57
2018-04-23T19:51:51.700Z,6.93
2018-04-23T19:54:18.545Z,6.23
2018-04-23T19:56:45.384Z,4.40
2018-04-23T19:59:12.037Z,4.87
2018-04-23T20:01:38.867Z,6.23
2018-04-23T20:04:05.574Z,4.10
2018-04-23T20:06:32.240Z,5.07
2018-04-23T20:08:59.088Z,8.33
2018-04-23T20:11:25.822Z,6.50
2018-04-23T20:13:52.564Z,6.50
2018-04-23T20:16:19.319Z,7.90
2018-04-23T20:18:46.043Z,6.47
2018-04-23T20:21:12.630Z,6.73
2018-04-23T20:23:39.417Z,6.83
2018-04-23T20:26:06.259Z,3.97
2018-04-23T20:28:33.001Z,6.87
2018-04-23T20:30:59.845Z,7.23
2018-04-23T20:33:26.514Z,7.27
2018-04-23T20:35:53.189Z,9.63
2018-04-23T20:38:19.960Z,6.30
2018-04-23T20:40:46.704Z,8.93
2018-04-23T20:43:13.855Z,6.77
2018-04-23T20:45:40.797Z,5.93
2018-04-23T20:48:07.543Z,5.90
2018-04-23T20:50:34.381Z,7.07
2018-04-23T20:53:01.221Z,4.13
2018-04-23T20:55:27.956Z,5.23
2018-04-23T20:57:54.804Z,4.53
2018-04-23T21:00:21.753Z,6.17
2018-04-23T21:02:48.489Z,5.67
2018-04-23T21:05:15.435Z,5.83
2018-04-23T21:07:42.177Z,8.03
2018-04-23T21:10:08.913Z,6.30
2018-04-23T21:12:35.530Z,5.80
2018-04-23T21:15:02.294Z,5.33
2018-04-23T21:17:29.028Z,7.00
2018-04-23T21:19:55.873Z,7.97
2018-04-23T21:22:22.719Z,6.33
2018-04-23T21:24:49.456Z,5.10
2018-04-23T21:27:16.294Z,6.20
2018-04-23T21:29:43.140Z,6.07
2018-04-23T21:32:09.983Z,4.37
2018-04-23T21:34:36.724Z,6.13
2018-04-23T21:37:03.319Z,6.30
2018-04-23T21:39:30.100Z,6.47
2018-04-23T21:41:57.051Z,4.70
2018-04-23T21:44:24.196Z,4.37
2018-04-23T21:46:50.935Z,5.77
2018-04-23T21:49:17.778Z,10.13
2018-04-23T21:51:44.627Z,6.30
2018-04-23T21:54:12.281Z,6.27
2018-04-23T21:56:38.911Z,11.80
2018-04-23T21:59:05.638Z,4.47
2018-04-23T22:01:32.326Z,6.33
2018-04-23T22:03:59.858Z,4.73
2018-04-23T22:06:26.572Z,5.57
2018-04-23T22:08:53.235Z,7.03
2018-04-23T22:11:20.254Z,5.83
2018-04-23T22:13:46.833Z,5.27
2018-04-23T22:16:14.272Z,6.13
2018-04-23T22:18:42.368Z,7.10
2018-04-23T22:21:09.719Z,9.77
2018-04-23T22:23:37.257Z,7.00
2018-04-23T22:26:03.996Z,5.53
2018-04-23T22:28:30.641Z,6.07
2018-04-23T22:30:57.365Z,7.40
2018-04-23T22:33:24.113Z,5.43
2018-04-23T22:35:50.957Z,7.53
2018-04-23T22:38:18.439Z,6.63
2018-04-23T22:40:45.116Z,5.10
2018-04-23T22:43:11.754Z,7.43
2018-04-23T22:45:39.190Z,5.47
2018-04-23T22:48:05.772Z,7.97
2018-04-23T22:50:32.594Z,5.50
2018-04-23T22:52:59.979Z,5.33
2018-04-23T22:55:28.255Z,5.10
2018-04-23T22:57:56.323Z,7.90
2018-04-23T23:00:23.168Z,5.37
2018-04-23T23:02:49.921Z,7.07
2018-04-23T23:05:16.747Z,8.83
2018-04-23T23:07:43.589Z,6.63
2018-04-23T23:10:10.538Z,5.73
2018-04-23T23:12:37.267Z,6.33
2018-04-23T23:15:04.012Z,5.97
2018-04-23T23:17:30.723Z,6.10
2018-04-23T23:19:57.491Z,8.23
2018-04-23T23:22:24.232Z,8.50
2018-04-23T23:24:52.438Z,8.20
2018-04-23T23:27:19.094Z,7.60
2018-04-23T23:29:46.606Z,7.63
2018-04-23T23:32:13.450Z,9.30
2018-04-23T23:34:40.295Z,11.27
2018-04-23T23:37:07.134Z,11.30
2018-04-23T23:39:33.983Z,8.60
2018-04-23T23:42:00.838Z,8.30
2018-04-23T23:44:27.766Z,7.67
2018-04-23T23:46:54.451Z,8.60
2018-04-23T23:49:21.341Z,7.63
2018-04-23T23:51:48.017Z,8.00
2018-04-23T23:54:15.539Z,7.47
2018-04-23T23:56:42.489Z,9.73
2018-04-23T23:59:09.328Z,9.90
